createdAt,value
2019-01-15T00:00:08.281Z,2
2019-01-15T00:05:03.048Z,2
2019-01-15T00:10:04.941Z,2
2019-01-15T00:15:02.396Z,2
2019-01-15T00:20:04.914Z,2.1
2019-01-15T00:25:07.362Z,2.1
2019-01-15T00:30:02.325Z,2.1
2019-01-15T00:35:13.375Z,2.2
2019-01-15T00:40:02.738Z,2.2
2019-01-15T00:45:05.230Z,2.3
2019-01-15T00:50:05.737Z,2.3
2019-01-15T00:55:08.286Z,2.3
2019-01-15T01:00:08.287Z,2.3
2019-01-15T01:05:03.171Z,2.3
2019-01-15T01:10:02.600Z,2.3
2019-01-15T01:15:10.045Z,2.3
2019-01-15T01:20:08.148Z,2.4
2019-01-15T01:25:05.686Z,2.3
2019-01-15T01:30:05.119Z,2.3
2019-01-15T01:35:07.666Z,2.3
2019-01-15T01:40:05.529Z,2.3
2019-01-15T01:45:05.537Z,2.4
2019-01-15T01:50:02.557Z,2.4
2019-01-15T01:55:05.070Z,2.4
2019-01-15T02:00:03.016Z,2.4
2019-01-15T02:05:08.036Z,2.4
2019-01-15T02:10:04.958Z,2.4
2019-01-15T02:15:04.879Z,2.4
2019-01-15T02:20:05.481Z,2.3
2019-01-15T02:25:02.927Z,2.3
2019-01-15T02:30:05.461Z,2.1
2019-01-15T02:35:05.478Z,2.1
2019-01-15T02:40:02.945Z,2.1
2019-01-15T02:45:02.905Z,2
2019-01-15T02:50:07.938Z,1.9
2019-01-15T02:55:02.847Z,2
2019-01-15T03:00:15.387Z,1.9
2019-01-15T03:05:05.234Z,1.9
2019-01-15T03:10:05.223Z,2
2019-01-15T03:15:15.240Z,2
2019-01-15T03:20:08.311Z,2
2019-01-15T03:25:03.284Z,2
2019-01-15T03:30:10.828Z,2
2019-01-15T03:35:04.903Z,2
2019-01-15T03:40:03.261Z,2
2019-01-15T03:45:13.320Z,2
2019-01-15T03:50:08.298Z,2.1
2019-01-15T03:55:02.313Z,2.1
2019-01-15T04:00:21.008Z,2.3
2019-01-15T04:05:02.332Z,2.2
2019-01-15T04:10:05.234Z,2.4
2019-01-15T04:15:05.189Z,2.5
2019-01-15T04:20:05.761Z,2.6
2019-01-15T04:25:03.253Z,2.6
2019-01-15T04:30:20.982Z,2.7
2019-01-15T04:35:03.212Z,2.7
2019-01-15T04:40:07.665Z,2.8
2019-01-15T04:45:02.538Z,2.8
2019-01-15T04:50:02.432Z,2.8
2019-01-15T04:55:17.532Z,2.9
2019-01-15T05:00:05.008Z,2.9
2019-01-15T05:05:02.413Z,2.9
2019-01-15T05:10:07.878Z,3
2019-01-15T05:15:05.296Z,3
2019-01-15T05:20:03.299Z,3
2019-01-15T05:25:03.273Z,3
2019-01-15T05:30:05.782Z,3
2019-01-15T05:35:05.697Z,3
2019-01-15T05:40:08.174Z,3
2019-01-15T05:45:08.115Z,3.1
2019-01-15T05:50:03.046Z,3.1
2019-01-15T05:55:25.810Z,3.1
2019-01-15T06:00:02.786Z,3.1
2019-01-15T06:05:02.751Z,3.2
2019-01-15T06:10:05.673Z,3.2
2019-01-15T06:15:15.731Z,3.2
2019-01-15T06:20:15.481Z,3.3
2019-01-15T06:25:05.317Z,3.3
2019-01-15T06:30:12.494Z,3.2
2019-01-15T06:35:02.322Z,3.3
2019-01-15T06:40:02.731Z,3.3
2019-01-15T06:45:02.730Z,3.3
2019-01-15T06:50:02.912Z,3.3
2019-01-15T06:55:23.141Z,3.3
2019-01-15T07:00:05.627Z,3.3
2019-01-15T07:05:08.136Z,3.3
2019-01-15T07:10:05.059Z,3.3
2019-01-15T07:15:02.540Z,3.4
2019-01-15T07:20:05.127Z,3.4
2019-01-15T07:25:02.623Z,3.3
2019-01-15T07:30:20.322Z,3.3
2019-01-15T07:35:02.641Z,3.4
2019-01-15T07:40:08.103Z,3.4
2019-01-15T07:45:05.476Z,3.4
2019-01-15T07:50:02.444Z,3.4
2019-01-15T07:55:04.899Z,3.4
2019-01-15T08:00:05.352Z,3.4
2019-01-15T08:05:02.812Z,3.4
2019-01-15T08:10:08.268Z,3.4
2019-01-15T08:15:03.139Z,3.4
2019-01-15T08:20:03.266Z,3.4
2019-01-15T08:25:05.712Z,3.4
2019-01-15T08:30:07.780Z,3.4
2019-01-15T08:35:05.190Z,3.5
2019-01-15T08:40:05.164Z,3.4
2019-01-15T08:45:05.560Z,3.2
2019-01-15T08:50:05.060Z,3
2019-01-15T08:55:04.981Z,2.9
2019-01-15T09:00:08.168Z,2.9
2019-01-15T09:05:05.500Z,2.9
2019-01-15T09:10:02.976Z,2.9
2019-01-15T09:15:03.010Z,2.8
2019-01-15T09:20:18.144Z,2.9
2019-01-15T09:25:28.351Z,2.9
2019-01-15T09:30:07.461Z,3
2019-01-15T09:35:02.344Z,3
2019-01-15T09:40:05.294Z,3.1
2019-01-15T09:45:02.712Z,3.1
2019-01-15T09:50:05.167Z,3.2
2019-01-15T09:55:07.945Z,3.1
2019-01-15T10:00:13.045Z,3.1
2019-01-15T10:05:07.876Z,3.2
2019-01-15T10:10:03.283Z,3.2
2019-01-15T10:15:13.322Z,3.3
2019-01-15T10:20:02.474Z,3.3
2019-01-15T10:25:07.476Z,3.5
2019-01-15T10:30:02.449Z,3.4
2019-01-15T10:35:15.111Z,3.5
2019-01-15T10:40:05.056Z,3.6
2019-01-15T10:45:02.529Z,3.6
2019-01-15T10:50:07.668Z,3.8
2019-01-15T10:55:15.303Z,3.9
2019-01-15T11:00:05.799Z,4
2019-01-15T11:05:05.727Z,4.1
2019-01-15T11:10:18.290Z,4.2
2019-01-15T11:15:03.251Z,4.2
2019-01-15T11:20:18.491Z,4.3
2019-01-15T11:25:08.348Z,4.2
2019-01-15T11:30:03.304Z,4.2
2019-01-15T11:35:09.909Z,4.2
2019-01-15T11:40:02.479Z,4.2
2019-01-15T11:45:22.606Z,4.3
2019-01-15T11:50:17.732Z,4.4
2019-01-15T11:55:07.570Z,4.4
2019-01-15T12:00:30.430Z,4.5
2019-01-15T12:05:05.136Z,4.6
2019-01-15T12:10:02.566Z,4.6
2019-01-15T12:15:02.504Z,4.7
2019-01-15T12:20:02.552Z,4.7
2019-01-15T12:25:05.042Z,4.8
2019-01-15T12:30:05.648Z,4.8
2019-01-15T12:35:10.608Z,4.6
2019-01-15T12:40:05.652Z,4.5
2019-01-15T12:45:05.644Z,4.4
2019-01-15T12:50:02.634Z,4.4
2019-01-15T12:55:05.184Z,4.3
2019-01-15T13:00:08.151Z,4.3
2019-01-15T13:05:15.654Z,4.3
2019-01-15T13:10:05.586Z,4.4
2019-01-15T13:15:15.711Z,4.4
2019-01-15T13:20:05.254Z,4.4
2019-01-15T13:25:02.692Z,4.4
2019-01-15T13:30:02.633Z,4.5
2019-01-15T13:35:05.195Z,4.6
2019-01-15T13:40:05.184Z,4.6
2019-01-15T13:45:02.607Z,4.6
2019-01-15T13:50:05.133Z,4.7
2019-01-15T13:55:07.639Z,4.8
2019-01-15T14:00:05.311Z,4.8
2019-01-15T14:05:12.659Z,4.8
2019-01-15T14:10:05.552Z,4.8
2019-01-15T14:15:08.113Z,4.8
2019-01-15T14:20:08.182Z,4.8
2019-01-15T14:25:08.342Z,4.8
2019-01-15T14:30:38.640Z,4.8
2019-01-15T14:35:02.593Z,4.8
2019-01-15T14:40:03.033Z,4.9
2019-01-15T14:45:02.961Z,4.8
2019-01-15T14:50:02.971Z,4.9
2019-01-15T14:55:02.961Z,4.9
2019-01-15T15:00:02.943Z,4.9
2019-01-15T15:05:07.989Z,5
2019-01-15T15:10:04.939Z,5
2019-01-15T15:15:02.301Z,5
2019-01-15T15:20:08.359Z,5.1
2019-01-15T15:25:04.870Z,5.2
2019-01-15T15:30:07.878Z,5.2
2019-01-15T15:35:10.380Z,5.2
2019-01-15T15:40:02.777Z,5.2
2019-01-15T15:45:05.354Z,5.3
2019-01-15T15:50:04.861Z,5.3
2019-01-15T15:55:02.331Z,5.3
2019-01-15T16:00:33.682Z,5.4
2019-01-15T16:05:02.655Z,5.4
2019-01-15T16:10:20.719Z,5.5
2019-01-15T16:15:08.070Z,5.5
2019-01-15T16:20:02.503Z,5.5
2019-01-15T16:25:02.455Z,5.6
2019-01-15T16:30:02.446Z,5.6
2019-01-15T16:35:04.949Z,5.7
2019-01-15T16:40:03.293Z,5.7
2019-01-15T16:45:02.318Z,5.8
2019-01-15T16:50:11.364Z,5.9
2019-01-15T16:55:02.591Z,5.9
2019-01-15T17:00:05.073Z,6
2019-01-15T17:05:05.041Z,6.1
2019-01-15T17:10:25.176Z,6.1
2019-01-15T17:15:05.620Z,6.1
2019-01-15T17:20:05.192Z,6.1
2019-01-15T17:25:05.135Z,6.1
2019-01-15T17:30:02.415Z,6.1
2019-01-15T17:35:04.893Z,6.2
2019-01-15T17:40:04.900Z,6.2
2019-01-15T17:45:07.360Z,6.2
2019-01-15T17:50:03.280Z,6.2
2019-01-15T17:55:05.797Z,6.3
2019-01-15T18:00:05.318Z,6.4
2019-01-15T18:05:02.732Z,6.4
2019-01-15T18:10:03.101Z,6.5
2019-01-15T18:15:08.219Z,6.4
2019-01-15T18:20:05.807Z,6.4
2019-01-15T18:25:08.287Z,6.4
2019-01-15T18:30:08.361Z,6.3
2019-01-15T18:35:03.273Z,6.3
2019-01-15T18:40:07.757Z,6.3
2019-01-15T18:45:05.215Z,6.3
2019-01-15T18:50:05.689Z,6.3
2019-01-15T18:55:05.693Z,6.3
2019-01-15T19:00:02.644Z,6.2
2019-01-15T19:05:05.133Z,6.3
2019-01-15T19:10:07.610Z,6.3
2019-01-15T19:15:10.118Z,6.3
2019-01-15T19:20:23.451Z,6.2
2019-01-15T19:25:08.224Z,6.1
2019-01-15T19:30:05.827Z,6.1
2019-01-15T19:35:08.235Z,6
2019-01-15T19:40:10.265Z,6
2019-01-15T19:45:02.634Z,6
2019-01-15T19:50:02.623Z,6.1
2019-01-15T19:55:05.077Z,6.2
2019-01-15T20:00:03.148Z,6.2
2019-01-15T20:05:10.614Z,6.2
2019-01-15T20:15:05.523Z,6.2
2019-01-15T20:20:02.681Z,6.2
2019-01-15T20:25:02.575Z,6.2
2019-01-15T20:30:07.625Z,6.3
2019-01-15T20:35:05.031Z,6.3
2019-01-15T20:40:07.487Z,6.3
2019-01-15T20:45:02.404Z,6.3
2019-01-15T20:50:02.432Z,6.3
2019-01-15T20:55:08.276Z,6.2
2019-01-15T21:00:18.364Z,6.2
2019-01-15T21:05:03.102Z,6.2
2019-01-15T21:10:10.120Z,6.2
2019-01-15T21:15:02.445Z,6.2
2019-01-15T21:20:02.422Z,6.2
2019-01-15T21:25:02.441Z,6.2
2019-01-15T21:30:04.932Z,6.2
2019-01-15T21:35:15.032Z,6.2
2019-01-15T21:40:07.447Z,6.2
2019-01-15T21:45:02.381Z,6.2
2019-01-15T21:50:02.375Z,6.2
2019-01-15T21:55:07.466Z,6.2
2019-01-15T22:00:30.337Z,6.2
2019-01-15T22:05:02.275Z,6.2
2019-01-15T22:10:15.324Z,6.2
2019-01-15T22:15:17.864Z,6.2
2019-01-15T22:20:02.832Z,6.3
2019-01-15T22:25:02.822Z,6.3
2019-01-15T22:30:02.941Z,6.3
2019-01-15T22:35:05.491Z,6.3
2019-01-15T22:40:02.914Z,6.3
2019-01-15T22:45:03.272Z,6.4
2019-01-15T22:50:03.284Z,6.4
2019-01-15T22:55:02.329Z,6.4
2019-01-15T23:00:03.261Z,6.3
2019-01-15T23:05:08.325Z,6.4
2019-01-15T23:10:02.790Z,6.4
2019-01-15T23:15:02.680Z,6.4
2019-01-15T23:20:02.676Z,6.4
2019-01-15T23:25:05.181Z,6.5
2019-01-15T23:30:03.117Z,6.5
2019-01-15T23:35:03.183Z,6.5
2019-01-15T23:40:05.081Z,6.5
2019-01-15T23:45:02.555Z,6.5
2019-01-15T23:50:17.736Z,6.6
2019-01-15T23:55:10.146Z,6.6
